Time;durP1;ratioP1;P1;durP2;ratioP2;P2;SDS_P1;SDS_P2;PMS_P1;PMS_P2;Temp;Humidity;BMP_temperature;BMP_pressure;BME280_temperature;BME280_humidity;BME280_pressure;Samples;Min_cycle;Max_cycle;Signal;HPM_P1;HPM_P2
2022/09/14 00:00:57;;;;;;;5.30;2.95;;;16.80;99.90;;;;;;5030545;28;20085;-77
2022/09/14 00:03:22;;;;;;;5.85;3.08;;;16.70;99.90;;;;;;5030673;28;20037;-77
2022/09/14 00:05:48;;;;;;;8.30;3.58;;;16.70;99.90;;;;;;5030364;28;20037;-77
2022/09/14 00:08:14;;;;;;;7.28;3.28;;;16.70;99.90;;;;;;5030716;28;20498;-77
2022/09/14 00:10:44;;;;;;;9.82;3.55;;;16.70;99.90;;;;;;5030717;28;20033;-77
2022/09/14 00:13:12;;;;;;;5.55;3.45;;;16.70;99.90;;;;;;5030445;28;20025;-77
2022/09/14 00:15:39;;;;;;;6.28;3.22;;;16.70;99.90;;;;;;5030757;28;20123;-77
2022/09/14 00:18:06;;;;;;;4.45;3.35;;;16.70;99.90;;;;;;5030213;28;20497;-77
2022/09/14 00:20:33;;;;;;;7.93;3.42;;;16.60;99.90;;;;;;5030583;28;20033;-77
2022/09/14 00:22:59;;;;;;;5.25;3.60;;;16.60;99.90;;;;;;5031148;28;20021;-77
2022/09/14 00:25:25;;;;;;;9.23;3.92;;;16.60;99.90;;;;;;5030999;28;20132;-77
2022/09/14 00:27:52;;;;;;;6.68;3.30;;;16.60;99.90;;;;;;5030561;28;20038;-77
2022/09/14 00:30:18;;;;;;;5.78;3.30;;;16.60;99.90;;;;;;5030042;28;20112;-77
2022/09/14 00:32:44;;;;;;;5.60;3.45;;;16.60;99.90;;;;;;5030371;28;20111;-77
2022/09/14 00:35:09;;;;;;;6.13;3.60;;;16.60;99.90;;;;;;5030528;28;20084;-77
2022/09/14 00:37:35;;;;;;;7.07;3.38;;;16.60;99.90;;;;;;5030049;28;20037;-77
2022/09/14 00:40:03;;;;;;;5.20;3.83;;;16.60;99.90;;;;;;5030042;28;20140;-77
2022/09/14 00:42:29;;;;;;;7.00;3.72;;;16.60;99.90;;;;;;5030284;28;20026;-77
2022/09/14 00:45:00;;;;;;;8.15;3.40;;;16.60;99.90;;;;;;5029559;28;20033;-76
2022/09/14 00:47:27;;;;;;;10.25;3.70;;;16.60;99.90;;;;;;5028221;28;20029;-76
2022/09/14 00:49:53;;;;;;;7.85;3.65;;;16.60;99.90;;;;;;5027819;28;20125;-76
2022/09/14 00:52:23;;;;;;;5.65;3.25;;;16.60;99.90;;;;;;5028587;28;20120;-76
2022/09/14 00:54:55;;;;;;;6.45;3.40;;;16.60;99.90;;;;;;5028246;28;20029;-76
2022/09/14 00:57:23;;;;;;;8.68;3.60;;;16.60;99.90;;;;;;5027536;28;20584;-76
2022/09/14 00:59:51;;;;;;;8.95;3.50;;;16.60;99.90;;;;;;5027873;28;20040;-76
2022/09/14 01:02:19;;;;;;;8.75;3.45;;;16.60;99.90;;;;;;5027558;28;20394;-76
2022/09/14 01:04:46;;;;;;;7.25;4.00;;;16.60;99.90;;;;;;5027965;28;20450;-76
2022/09/14 01:07:41;;;;;;;5.68;3.40;;;16.70;99.90;;;;;;5028342;28;20036;-76
2022/09/14 01:10:09;;;;;;;4.78;3.42;;;16.60;99.90;;;;;;5027868;28;20078;-76
2022/09/14 01:13:16;;;;;;;5.95;3.47;;;16.60;99.90;;;;;;5027542;28;20481;-76
2022/09/14 01:15:57;;;;;;;7.97;3.80;;;16.70;99.90;;;;;;5027415;28;20025;-76
2022/09/14 01:18:28;;;;;;;6.40;3.10;;;16.70;99.90;;;;;;5027718;28;20048;-76
2022/09/14 01:21:27;;;;;;;8.23;3.50;;;16.70;99.90;;;;;;5027652;28;20025;-76
2022/09/14 01:24:16;;;;;;;6.88;3.58;;;16.70;99.90;;;;;;5027951;28;20032;-76
2022/09/14 01:26:58;;;;;;;6.68;3.13;;;16.70;99.90;;;;;;5028162;28;20025;-76
2022/09/14 01:29:48;;;;;;;8.85;3.08;;;16.70;99.90;;;;;;5027763;28;20545;-76
2022/09/14 01:32:26;;;;;;;8.60;3.30;;;16.80;99.90;;;;;;5027159;28;20032;-76
2022/09/14 01:35:19;;;;;;;6.60;3.60;;;16.70;99.90;;;;;;5027207;28;20516;-76
2022/09/14 01:38:02;;;;;;;8.05;3.55;;;16.70;99.90;;;;;;5027081;28;20490;-76
2022/09/14 01:40:38;;;;;;;5.53;3.13;;;16.70;99.90;;;;;;5027025;28;20060;-76
2022/09/14 01:43:16;;;;;;;5.82;3.42;;;16.80;99.90;;;;;;5027162;28;20211;-76
2022/09/14 01:45:46;;;;;;;5.60;3.40;;;16.70;99.90;;;;;;5027373;28;20041;-76
2022/09/14 01:48:14;;;;;;;5.38;3.28;;;16.80;99.90;;;;;;5027775;28;20037;-76
2022/09/14 01:50:45;;;;;;;6.68;3.20;;;16.80;99.90;;;;;;5027531;28;20048;-76
2022/09/14 01:53:39;;;;;;;5.22;3.17;;;16.80;99.90;;;;;;5027490;28;20499;-76
2022/09/14 01:56:19;;;;;;;6.72;3.40;;;16.80;99.90;;;;;;5027512;28;20747;-76
2022/09/14 01:58:55;;;;;;;5.93;3.40;;;16.80;99.90;;;;;;5027717;28;20034;-76
2022/09/14 02:01:34;;;;;;;8.35;3.60;;;16.80;99.90;;;;;;5026535;28;20044;-76
2022/09/14 02:04:05;;;;;;;5.85;3.50;;;16.80;99.90;;;;;;5027290;28;20224;-76
2022/09/14 02:06:37;;;;;;;5.90;3.58;;;16.80;99.90;;;;;;5027055;28;20029;-76
2022/09/14 02:09:05;;;;;;;8.85;2.92;;;16.80;99.90;;;;;;5026582;28;20487;-80
2022/09/14 02:11:31;;;;;;;7.82;3.50;;;16.70;99.90;;;;;;5026972;28;20033;-80
2022/09/14 02:13:56;;;;;;;4.35;2.97;;;16.70;99.90;;;;;;5026376;28;20037;-80
2022/09/14 02:16:23;;;;;;;8.07;3.00;;;16.70;99.90;;;;;;5027261;28;20029;-80
2022/09/14 02:18:49;;;;;;;8.85;3.00;;;16.70;99.90;;;;;;5026578;28;20029;-80
2022/09/14 02:21:22;;;;;;;5.40;2.88;;;16.70;99.90;;;;;;5026045;28;20036;-80
2022/09/14 02:23:48;;;;;;;3.33;2.50;;;16.70;99.90;;;;;;5026602;28;20140;-80
2022/09/14 02:26:16;;;;;;;6.68;2.53;;;16.70;99.90;;;;;;5025064;28;20030;-80
2022/09/14 02:28:41;;;;;;;7.53;2.70;;;16.70;99.90;;;;;;5026401;28;20037;-79
2022/09/14 02:31:22;;;;;;;10.90;3.20;;;16.70;99.90;;;;;;5026676;28;20045;-80
2022/09/14 02:34:04;;;;;;;7.07;2.80;;;16.70;99.90;;;;;;5026999;28;20029;-80
2022/09/14 02:36:36;;;;;;;8.10;2.90;;;16.70;99.90;;;;;;5026448;28;20414;-80
2022/09/14 02:39:24;;;;;;;6.93;2.70;;;16.70;99.90;;;;;;5026970;28;20406;-80
2022/09/14 02:41:59;;;;;;;5.78;2.30;;;16.70;99.90;;;;;;5026383;28;20022;-79
2022/09/14 02:44:45;;;;;;;3.67;2.40;;;16.60;99.90;;;;;;5027009;28;20077;-80
2022/09/14 02:47:16;;;;;;;;;;;16.60;99.90;;;;;;5026976;28;20064;-80
2022/09/14 02:49:55;;;;;;;5.35;2.53;;;16.60;99.90;;;;;;5026778;28;20368;-80
2022/09/14 02:52:32;;;;;;;5.28;2.63;;;16.70;99.90;;;;;;5026059;28;20036;-80
2022/09/14 02:55:05;;;;;;;6.43;2.65;;;16.70;99.90;;;;;;5030004;28;20116;-80
2022/09/14 02:57:30;;;;;;;5.70;2.45;;;16.60;99.90;;;;;;5029694;28;20052;-80
2022/09/14 02:59:56;;;;;;;3.72;2.35;;;16.60;99.90;;;;;;5030673;28;20022;-79
2022/09/14 03:02:21;;;;;;;8.65;3.03;;;16.70;99.90;;;;;;5030625;28;20112;-80
2022/09/14 03:04:47;;;;;;;3.72;2.53;;;16.60;99.90;;;;;;5030400;28;20040;-79
2022/09/14 03:07:12;;;;;;;4.47;2.30;;;16.60;99.90;;;;;;5030161;28;20025;-79
2022/09/14 03:09:38;;;;;;;5.32;2.55;;;16.60;99.90;;;;;;5030153;28;20057;-80
2022/09/14 03:12:04;;;;;;;5.20;2.78;;;16.60;99.90;;;;;;5030310;28;20022;-80
2022/09/14 03:14:30;;;;;;;9.75;2.58;;;16.60;99.90;;;;;;5030216;28;20478;-80
2022/09/14 03:16:55;;;;;;;3.20;2.40;;;16.60;99.90;;;;;;5030104;28;20043;-79
2022/09/14 03:19:21;;;;;;;6.57;2.75;;;16.60;99.90;;;;;;5029816;28;20025;-80
2022/09/14 03:21:47;;;;;;;5.38;2.50;;;16.60;99.90;;;;;;5029911;28;20044;-80
2022/09/14 03:24:12;;;;;;;6.60;2.65;;;16.60;99.90;;;;;;5029670;28;20106;-80
2022/09/14 03:26:38;;;;;;;6.82;3.13;;;16.60;99.90;;;;;;5029712;28;20370;-80
2022/09/14 03:29:05;;;;;;;4.72;2.83;;;16.60;99.90;;;;;;5029513;28;20029;-80
2022/09/14 03:31:32;;;;;;;5.75;2.60;;;16.60;99.90;;;;;;5029935;28;20429;-80
2022/09/14 03:34:00;;;;;;;4.25;2.97;;;16.60;99.90;;;;;;5029402;28;20063;-80
2022/09/14 03:36:27;;;;;;;6.30;2.80;;;16.60;99.90;;;;;;5029754;28;20033;-80
2022/09/14 03:38:55;;;;;;;3.90;2.45;;;16.60;99.90;;;;;;5029148;28;20023;-80
2022/09/14 03:41:22;;;;;;;6.82;2.58;;;16.50;99.90;;;;;;5029493;28;20021;-81
2022/09/14 03:43:47;;;;;;;10.73;2.92;;;16.60;99.90;;;;;;5029566;28;20482;-81
2022/09/14 03:46:15;;;;;;;4.45;2.70;;;16.60;99.90;;;;;;5029792;28;20040;-81
2022/09/14 03:48:41;;;;;;;4.85;2.10;;;16.60;99.90;;;;;;5029331;28;20033;-81
2022/09/14 03:51:08;;;;;;;6.57;2.03;;;16.60;99.90;;;;;;5029214;28;20037;-81
2022/09/14 03:53:34;;;;;;;4.03;1.95;;;16.60;99.90;;;;;;5029835;28;20029;-81
2022/09/14 03:56:00;;;;;;;5.70;2.10;;;16.70;99.90;;;;;;5029057;28;20056;-81
2022/09/14 03:58:29;;;;;;;6.93;1.95;;;16.70;99.90;;;;;;5029265;28;20025;-81
2022/09/14 04:00:56;;;;;;;3.58;2.42;;;16.70;99.90;;;;;;5028863;28;20033;-81
2022/09/14 04:03:22;;;;;;;8.95;2.50;;;16.80;99.90;;;;;;5028923;28;20025;-81
2022/09/14 04:05:55;;;;;;;6.03;2.63;;;16.80;99.90;;;;;;5028958;28;20029;-82
2022/09/14 04:08:20;;;;;;;5.07;2.28;;;16.80;99.90;;;;;;5029164;28;20482;-81
2022/09/14 04:10:46;;;;;;;7.85;2.50;;;16.90;99.90;;;;;;5029393;28;20037;-81
2022/09/14 04:13:11;;;;;;;4.75;2.25;;;16.90;99.90;;;;;;5028365;28;20453;-81
2022/09/14 04:15:37;;;;;;;4.57;2.47;;;17.00;99.90;;;;;;5028775;28;20779;-81
2022/09/14 04:18:02;;;;;;;3.22;2.20;;;17.00;99.90;;;;;;5028713;28;20033;-81
2022/09/14 04:20:28;;;;;;;4.22;2.13;;;17.00;99.90;;;;;;5029293;28;20021;-81
2022/09/14 04:22:53;;;;;;;3.67;1.95;;;17.10;99.90;;;;;;5029222;28;20116;-81
2022/09/14 04:25:19;;;;;;;5.93;2.35;;;17.10;99.90;;;;;;5028676;28;20065;-81
2022/09/14 04:27:44;;;;;;;3.60;2.10;;;17.10;99.90;;;;;;5028529;28;20037;-81
2022/09/14 04:30:11;;;;;;;3.97;2.00;;;17.10;99.90;;;;;;5028545;28;20490;-81
2022/09/14 04:32:36;;;;;;;5.13;2.40;;;17.20;99.90;;;;;;5028721;28;20087;-81
2022/09/14 04:35:02;;;;;;;5.28;2.00;;;17.10;99.90;;;;;;5028149;28;20377;-81
2022/09/14 04:37:30;;;;;;;3.65;1.83;;;17.10;99.90;;;;;;5028046;28;20048;-81
2022/09/14 04:39:56;;;;;;;5.47;2.33;;;17.10;99.90;;;;;;5028086;28;20028;-81
2022/09/14 04:42:21;;;;;;;5.78;2.63;;;17.10;99.90;;;;;;5028297;28;20346;-81
2022/09/14 04:44:47;;;;;;;4.85;2.17;;;17.10;99.90;;;;;;5028243;28;20029;-81
2022/09/14 04:47:12;;;;;;;4.50;1.80;;;17.10;99.90;;;;;;5028481;28;20506;-81
2022/09/14 04:49:38;;;;;;;3.97;2.10;;;17.10;99.90;;;;;;5028239;28;20034;-81
2022/09/14 04:52:03;;;;;;;4.20;1.98;;;17.20;99.90;;;;;;5028081;28;20075;-81
2022/09/14 04:54:29;;;;;;;7.68;1.85;;;17.10;99.90;;;;;;5027872;28;20037;-81
2022/09/14 04:56:54;;;;;;;4.10;2.00;;;17.20;99.90;;;;;;5028339;28;20083;-81
2022/09/14 04:59:20;;;;;;;4.13;2.03;;;17.20;99.90;;;;;;5028553;28;20021;-82
2022/09/14 05:01:47;;;;;;;3.20;1.70;;;17.30;99.90;;;;;;5028567;28;20060;-81
2022/09/14 05:04:12;;;;;;;4.25;1.67;;;17.30;99.90;;;;;;5027830;28;20025;-82
2022/09/14 05:06:39;;;;;;;6.32;2.15;;;17.40;99.90;;;;;;5028398;28;20040;-82
2022/09/14 05:09:11;;;;;;;6.43;1.90;;;17.40;99.90;;;;;;5027499;28;20104;-81
2022/09/14 05:11:37;;;;;;;4.32;1.90;;;17.50;99.90;;;;;;5027879;28;20049;-82
2022/09/14 05:14:03;;;;;;;4.72;1.88;;;17.60;99.90;;;;;;5027465;28;20064;-81
2022/09/14 05:16:31;;;;;;;4.88;1.55;;;17.60;99.90;;;;;;5027184;28;20021;-81
2022/09/14 05:19:00;;;;;;;6.50;2.00;;;17.60;99.90;;;;;;5027448;28;20096;-81
2022/09/14 05:21:28;;;;;;;3.92;1.80;;;17.70;99.90;;;;;;5027578;28;20037;-81
2022/09/14 05:23:55;;;;;;;4.22;1.85;;;17.70;99.90;;;;;;5027917;28;20032;-81
2022/09/14 05:26:22;;;;;;;4.30;1.83;;;17.70;99.90;;;;;;5027627;28;20025;-81
2022/09/14 05:28:53;;;;;;;4.53;1.80;;;17.70;99.90;;;;;;5027040;28;20083;-81
2022/09/14 05:31:19;;;;;;;4.72;2.50;;;17.70;99.90;;;;;;5027594;28;20414;-80
2022/09/14 05:33:45;;;;;;;5.07;1.83;;;17.70;99.90;;;;;;5027404;28;20534;-80
2022/09/14 05:36:11;;;;;;;5.60;2.30;;;17.80;99.90;;;;;;5027188;28;20052;-80
2022/09/14 05:38:38;;;;;;;3.30;1.90;;;17.80;99.90;;;;;;5027365;28;20069;-80
2022/09/14 05:41:05;;;;;;;9.18;2.30;;;17.80;99.90;;;;;;5027702;28;20030;-80
2022/09/14 05:43:32;;;;;;;7.20;2.35;;;17.80;99.90;;;;;;5027319;28;20533;-80
2022/09/14 05:46:06;;;;;;;7.45;2.65;;;17.80;99.90;;;;;;5027171;28;20035;-80
2022/09/14 05:48:33;;;;;;;3.22;2.00;;;17.80;99.90;;;;;;5027277;28;20041;-80
2022/09/14 05:51:09;;;;;;;7.75;2.13;;;17.80;99.90;;;;;;5027329;28;20103;-80
2022/09/14 05:53:35;;;;;;;4.20;1.80;;;17.80;99.90;;;;;;5026955;28;20044;-80
2022/09/14 05:56:10;;;;;;;4.22;2.15;;;17.80;99.90;;;;;;5026982;28;20405;-80
2022/09/14 05:58:37;;;;;;;5.85;2.28;;;17.80;99.90;;;;;;5026843;28;20029;-80
2022/09/14 06:01:23;;;;;;;4.35;1.95;;;17.80;99.90;;;;;;5027135;28;20079;-80
2022/09/14 06:03:51;;;;;;;5.20;2.22;;;17.80;99.90;;;;;;5026917;28;20076;-80
2022/09/14 06:06:19;;;;;;;7.10;2.25;;;17.80;99.90;;;;;;5026717;28;20684;-80
2022/09/14 06:08:45;;;;;;;3.22;2.13;;;17.70;99.90;;;;;;5026727;28;20398;-80
2022/09/14 06:11:16;;;;;;;3.83;1.85;;;17.70;99.90;;;;;;5026775;28;20032;-80
2022/09/14 06:13:42;;;;;;;6.68;2.10;;;17.70;99.90;;;;;;5026944;28;20051;-80
2022/09/14 06:16:14;;;;;;;3.75;1.88;;;17.70;99.90;;;;;;5027190;28;20549;-80
2022/09/14 06:18:41;;;;;;;4.13;2.10;;;17.80;99.90;;;;;;5026742;28;20068;-80
2022/09/14 06:21:07;;;;;;;4.75;2.30;;;17.80;99.90;;;;;;5026895;28;20036;-80
2022/09/14 06:23:33;;;;;;;8.20;2.10;;;17.80;99.90;;;;;;5027515;28;20030;-80
2022/09/14 06:26:01;;;;;;;4.88;2.20;;;18.00;99.90;;;;;;5027493;28;20029;-80
2022/09/14 06:28:27;;;;;;;4.70;1.88;;;18.10;99.90;;;;;;5029978;28;20044;-80
2022/09/14 06:30:54;;;;;;;5.05;1.88;;;18.20;99.90;;;;;;5031125;28;20029;-80
2022/09/14 06:33:20;;;;;;;4.43;2.08;;;18.30;99.90;;;;;;5029914;28;20075;-80
2022/09/14 06:36:08;;;;;;;9.32;2.10;;;18.40;99.90;;;;;;5030558;28;20437;-80
2022/09/14 06:38:34;;;;;;;6.07;1.98;;;18.50;99.90;;;;;;5030551;28;20026;-80
2022/09/14 06:41:03;;;;;;;13.02;2.85;;;18.60;99.90;;;;;;5030738;28;20032;-80
2022/09/14 06:43:32;;;;;;;7.38;1.83;;;18.70;99.90;;;;;;5031573;28;20404;-80
2022/09/14 06:46:02;;;;;;;6.13;1.85;;;18.80;99.90;;;;;;5030692;28;20052;-80
2022/09/14 06:48:31;;;;;;;7.88;1.90;;;18.90;99.90;;;;;;5030479;28;20033;-80
2022/09/14 06:50:56;;;;;;;7.88;2.22;;;19.00;99.90;;;;;;5030897;28;20425;-80
2022/09/14 06:53:22;;;;;;;6.72;2.20;;;19.00;99.90;;;;;;5030990;28;20033;-80
2022/09/14 06:55:48;;;;;;;6.47;1.85;;;19.10;99.90;;;;;;5030391;28;20057;-80
2022/09/14 06:58:13;;;;;;;6.00;2.35;;;19.10;99.90;;;;;;5030464;28;20025;-80
2022/09/14 07:00:39;;;;;;;8.25;2.10;;;19.10;99.90;;;;;;5030455;28;20025;-81
2022/09/14 07:03:05;;;;;;;8.73;2.70;;;19.20;99.90;;;;;;5030547;28;20042;-80
2022/09/14 07:05:31;;;;;;;6.45;2.17;;;19.30;99.90;;;;;;5030195;28;20036;-80
2022/09/14 07:07:58;;;;;;;5.35;2.30;;;19.30;99.90;;;;;;5030037;28;20054;-80
2022/09/14 07:10:26;;;;;;;6.13;2.00;;;19.30;99.90;;;;;;5030006;28;20043;-80
2022/09/14 07:12:53;;;;;;;6.45;1.90;;;19.40;99.90;;;;;;5030317;28;20036;-80
2022/09/14 07:15:19;;;;;;;8.13;2.00;;;19.50;99.90;;;;;;5030344;28;20062;-80
2022/09/14 07:17:46;;;;;;;4.90;2.15;;;19.60;99.90;;;;;;5030123;28;20277;-80
2022/09/14 07:20:11;;;;;;;6.30;1.83;;;19.70;99.90;;;;;;5029485;28;20121;-80
2022/09/14 07:22:37;;;;;;;6.90;1.80;;;19.80;99.90;;;;;;5029742;28;20035;-80
2022/09/14 07:25:03;;;;;;;7.85;1.90;;;19.80;99.90;;;;;;5030279;28;20059;-80
2022/09/14 07:27:28;;;;;;;3.63;1.88;;;19.90;99.90;;;;;;5029890;28;20041;-80
2022/09/14 07:29:54;;;;;;;6.05;2.20;;;20.00;99.90;;;;;;5029924;28;20036;-80
2022/09/14 07:32:20;;;;;;;5.68;1.77;;;20.20;99.90;;;;;;5030044;28;20034;-80
2022/09/14 07:34:46;;;;;;;9.35;2.67;;;20.30;99.90;;;;;;5029862;28;20037;-80
2022/09/14 07:37:11;;;;;;;4.57;1.92;;;20.40;99.90;;;;;;5029812;28;20107;-80
2022/09/14 07:39:37;;;;;;;7.68;1.98;;;20.50;99.90;;;;;;5028763;28;20029;-80
2022/09/14 07:42:02;;;;;;;7.60;2.28;;;20.60;99.90;;;;;;5028229;28;20546;-80
2022/09/14 07:44:28;;;;;;;5.78;1.73;;;20.80;99.90;;;;;;5029030;28;20037;-80
2022/09/14 07:46:53;;;;;;;5.13;1.90;;;21.00;99.90;;;;;;5029514;28;20364;-80
2022/09/14 07:49:20;;;;;;;7.10;1.88;;;21.20;99.90;;;;;;5030136;28;20450;-80
2022/09/14 07:51:47;;;;;;;5.10;1.60;;;21.40;99.90;;;;;;5029243;28;20033;-80
2022/09/14 07:54:15;;;;;;;7.53;1.90;;;21.60;99.90;;;;;;5029922;28;20433;-80
2022/09/14 07:56:42;;;;;;;6.07;1.95;;;21.90;99.90;;;;;;5028904;28;20057;-80
2022/09/14 07:59:09;;;;;;;5.35;1.70;;;22.00;99.90;;;;;;5029948;28;20037;-81
2022/09/14 08:01:35;;;;;;;6.03;1.80;;;22.20;99.90;;;;;;5029246;28;20449;-80
2022/09/14 08:04:01;;;;;;;4.50;1.90;;;22.30;99.90;;;;;;5028897;28;20057;-80
2022/09/14 08:06:27;;;;;;;5.93;1.65;;;22.40;99.90;;;;;;5029681;28;20026;-80
2022/09/14 08:08:54;;;;;;;2.88;1.40;;;22.50;99.90;;;;;;5029509;28;20025;-80
2022/09/14 08:11:31;;;;;;;6.88;1.80;;;22.60;99.90;;;;;;5028870;28;20562;-81
2022/09/14 08:14:03;;;;;;;7.10;1.70;;;22.80;99.90;;;;;;5028752;28;20065;-80
2022/09/14 08:16:31;;;;;;;4.28;1.70;;;22.90;99.90;;;;;;5028776;28;20483;-80
2022/09/14 08:18:59;;;;;;;6.78;1.80;;;22.90;99.90;;;;;;5028673;28;20028;-80
2022/09/14 08:21:26;;;;;;;4.53;1.52;;;22.90;99.90;;;;;;5028626;28;20057;-81
2022/09/14 08:23:53;;;;;;;4.63;1.45;;;22.90;99.90;;;;;;5027528;28;20379;-80
2022/09/14 08:26:21;;;;;;;5.63;1.50;;;23.00;99.90;;;;;;5029893;28;20381;-80
2022/09/14 08:28:49;;;;;;;6.28;1.90;;;22.90;99.90;;;;;;5029120;28;20140;-80
2022/09/14 08:31:20;;;;;;;6.60;1.83;;;23.10;99.90;;;;;;5028628;28;20112;-80
2022/09/14 08:33:48;;;;;;;5.78;2.03;;;23.00;99.90;;;;;;5029205;28;20762;-80
2022/09/14 08:36:17;;;;;;;5.25;1.98;;;23.00;99.90;;;;;;5029336;28;20434;-80
2022/09/14 08:38:43;;;;;;;5.30;1.40;;;23.10;99.90;;;;;;5027316;28;20424;-81
2022/09/14 08:41:38;;;;;;;4.63;1.60;;;23.20;99.90;;;;;;5028767;28;20104;-80
2022/09/14 08:44:40;;;;;;;8.13;1.77;;;23.20;99.90;;;;;;5028262;28;20106;-81
2022/09/14 08:47:18;;;;;;;3.53;1.80;;;23.30;99.90;;;;;;5028161;28;20045;-80
2022/09/14 08:50:11;;;;;;;7.70;1.55;;;23.40;99.90;;;;;;5028313;28;20041;-81
2022/09/14 08:52:38;;;;;;;6.88;1.70;;;23.50;99.90;;;;;;5027043;28;20029;-81
2022/09/14 08:55:40;;;;;;;4.15;1.35;;;23.60;99.90;;;;;;5028508;28;20026;-81
2022/09/14 08:58:08;;;;;;;10.52;1.75;;;23.70;99.90;;;;;;5028609;28;20120;-77
2022/09/14 09:01:15;;;;;;;7.05;2.00;;;23.90;99.90;;;;;;5028204;28;20083;-77
2022/09/14 09:03:46;;;;;;;8.65;2.38;;;24.10;99.90;;;;;;5027892;28;20091;-77
2022/09/14 09:06:15;;;;;;;4.53;1.77;;;24.40;99.90;;;;;;5028293;28;20040;-78
2022/09/14 09:09:05;;;;;;;5.70;1.80;;;24.40;99.90;;;;;;5027277;28;20534;-77
2022/09/14 09:11:47;;;;;;;4.88;2.13;;;24.70;99.90;;;;;;5027575;28;20044;-77
2022/09/14 09:14:53;;;;;;;4.43;1.70;;;24.80;99.90;;;;;;5028119;28;20052;-77
2022/09/14 09:17:30;;;;;;;5.85;1.80;;;25.00;99.90;;;;;;5026805;28;20041;-77
2022/09/14 09:20:17;;;;;;;7.25;1.80;;;25.30;99.90;;;;;;5027951;28;20032;-77
2022/09/14 09:22:53;;;;;;;5.32;1.63;;;25.60;99.90;;;;;;5029879;28;20021;-78
2022/09/14 09:25:26;;;;;;;6.60;1.70;;;26.00;99.90;;;;;;5029448;28;20069;-78
2022/09/14 09:28:01;;;;;;;7.75;1.92;;;26.10;99.90;;;;;;5030295;28;20026;-78
2022/09/14 09:30:28;;;;;;;10.70;1.75;;;26.10;99.90;;;;;;5030439;28;20033;-78
2022/09/14 09:32:54;;;;;;;4.35;1.70;;;26.30;99.90;;;;;;5030195;28;20136;-78
2022/09/14 09:35:22;;;;;;;5.45;2.03;;;26.30;99.90;;;;;;5029537;28;20057;-77
2022/09/14 09:37:48;;;;;;;11.35;1.70;;;26.40;99.90;;;;;;5030101;28;20457;-78
2022/09/14 09:40:29;;;;;;;7.55;1.90;;;26.20;99.90;;;;;;5030164;28;20029;-78
2022/09/14 09:43:17;;;;;;;6.47;1.60;;;26.10;99.90;;;;;;5028561;28;20703;-78
2022/09/14 09:45:53;;;;;;;5.97;1.48;;;26.00;99.90;;;;;;5029411;28;20034;-78
2022/09/14 09:48:23;;;;;;;6.43;1.60;;;26.00;99.90;;;;;;5030048;28;20033;-77
2022/09/14 09:51:12;;;;;;;6.40;1.88;;;26.00;99.90;;;;;;5029256;28;20382;-77
2022/09/14 09:53:49;;;;;;;9.57;2.30;;;26.00;99.90;;;;;;5028724;28;20041;-77
2022/09/14 09:57:10;;;;;;;13.10;1.73;;;26.10;99.90;;;;;;5029048;28;20050;-77
2022/09/14 09:59:41;;;;;;;8.30;2.00;;;26.20;99.90;;;;;;4998028;28;20072;-78
2022/09/14 10:02:28;;;;;;;7.53;1.98;;;26.10;99.90;;;;;;5028687;28;20021;-78
2022/09/14 10:04:58;;;;;;;5.47;1.73;;;26.10;99.90;;;;;;5028846;28;20484;-78
2022/09/14 10:07:24;;;;;;;3.05;1.40;;;26.10;99.90;;;;;;5028782;28;20037;-78
2022/09/14 10:10:05;;;;;;;6.55;2.00;;;26.20;99.90;;;;;;5027168;28;20386;-78
2022/09/14 10:12:33;;;;;;;4.47;1.63;;;26.20;99.90;;;;;;5029145;28;20025;-78
2022/09/14 10:15:03;;;;;;;6.68;1.75;;;26.00;99.90;;;;;;5028984;28;20116;-78
2022/09/14 10:17:29;;;;;;;7.13;1.95;;;26.10;99.90;;;;;;5028272;28;20025;-78
2022/09/14 10:19:56;;;;;;;3.72;1.50;;;26.20;99.90;;;;;;5028219;28;20044;-78
2022/09/14 10:22:33;;;;;;;6.00;1.98;;;26.30;99.90;;;;;;5028872;28;20097;-77
2022/09/14 10:25:03;;;;;;;6.53;2.10;;;26.30;99.90;;;;;;5028108;28;20053;-78
2022/09/14 10:27:38;;;;;;;5.82;1.98;;;26.30;99.90;;;;;;5027957;28;20473;-78
2022/09/14 10:30:09;;;;;;;5.75;1.85;;;26.20;99.90;;;;;;5028441;28;20128;-78
2022/09/14 10:32:37;;;;;;;7.88;1.67;;;26.10;99.90;;;;;;5028404;28;20037;-78
2022/09/14 10:35:11;;;;;;;4.20;1.73;;;26.00;99.90;;;;;;5028441;28;20022;-77
2022/09/14 10:38:21;;;;;;;10.95;2.00;;;26.00;99.90;;;;;;5028300;28;20025;-78
2022/09/14 10:40:53;;;;;;;5.07;2.05;;;26.00;99.90;;;;;;5017425;28;20064;-78
2022/09/14 10:43:44;;;;;;;6.45;1.92;;;25.90;99.90;;;;;;5028130;28;20083;-78
2022/09/14 10:46:15;;;;;;;4.05;1.50;;;25.90;99.90;;;;;;5028374;28;20104;-78
2022/09/14 10:48:57;;;;;;;6.80;2.20;;;25.90;99.90;;;;;;5028839;28;20533;-78
2022/09/14 10:51:55;;;;;;;9.88;2.10;;;25.90;99.90;;;;;;5027845;28;20033;-78
2022/09/14 10:54:30;;;;;;;4.10;1.70;;;26.20;99.90;;;;;;5027991;28;20075;-77
2022/09/14 10:57:08;;;;;;;;;;;26.40;99.90;;;;;;5028295;28;20494;-78
2022/09/14 10:59:52;;;;;;;6.45;2.00;;;26.60;99.90;;;;;;5028060;28;19905;-78
2022/09/14 11:02:46;;;;;;;6.63;1.70;;;26.70;99.90;;;;;;5028622;28;20381;-78
2022/09/14 11:05:22;;;;;;;8.43;2.03;;;27.00;99.90;;;;;;5026874;28;20038;-77
2022/09/14 11:07:48;;;;;;;9.18;2.00;;;27.40;99.90;;;;;;5028049;28;20032;-78
2022/09/14 11:10:30;;;;;;;5.97;1.88;;;27.90;99.90;;;;;;5026729;28;20030;-78
2022/09/14 11:13:16;;;;;;;7.88;2.00;;;28.40;99.90;;;;;;5028109;28;20053;-78
2022/09/14 11:15:44;;;;;;;5.05;1.80;;;28.70;99.90;;;;;;5031469;28;20072;-78
2022/09/14 11:18:18;;;;;;;7.05;2.03;;;28.60;99.90;;;;;;5031748;28;20026;-77
2022/09/14 11:21:01;;;;;;;5.22;1.70;;;28.30;99.90;;;;;;5032210;28;20064;-78
2022/09/14 11:23:39;;;;;;;8.77;2.08;;;28.20;99.90;;;;;;5031410;28;20099;-78
2022/09/14 11:26:20;;;;;;;4.50;1.95;;;28.10;99.90;;;;;;5031564;28;20056;-78
2022/09/14 11:28:57;;;;;;;4.72;2.08;;;28.00;99.90;;;;;;5031782;28;20033;-78
2022/09/14 11:31:31;;;;;;;6.85;2.00;;;27.90;99.90;;;;;;5031217;28;20108;-77
2022/09/14 11:34:17;;;;;;;;;;;27.60;99.90;;;;;;5031592;28;20040;-78
2022/09/14 11:36:44;;;;;;;;;;;27.40;99.90;;;;;;5032105;28;19927;-78
2022/09/14 11:39:13;;;;;;;10.13;2.22;;;27.10;99.90;;;;;;5032054;28;19909;-78
2022/09/14 11:41:48;;;;;;;4.57;1.50;;;27.40;99.90;;;;;;5031185;28;20100;-78
2022/09/14 11:44:20;;;;;;;5.45;1.90;;;27.80;99.90;;;;;;5031031;28;20095;-78
2022/09/14 11:47:10;;;;;;;6.65;2.03;;;28.20;99.90;;;;;;5031879;28;20022;-78
2022/09/14 11:50:25;;;;;;;7.20;2.10;;;28.40;99.90;;;;;;5031478;28;20041;-78
2022/09/14 11:53:11;;;;;;;7.68;2.17;;;28.60;99.90;;;;;;5031132;28;20033;-78
2022/09/14 11:55:42;;;;;;;4.40;1.77;;;28.70;99.90;;;;;;5030992;28;20042;-78
2022/09/14 11:58:18;;;;;;;7.43;1.90;;;28.70;99.90;;;;;;5031839;28;20087;-78
2022/09/14 12:01:00;;;;;;;5.13;2.13;;;28.90;99.90;;;;;;5031669;28;20049;-78
2022/09/14 12:03:50;;;;;;;5.10;1.75;;;29.00;99.90;;;;;;5031429;28;20148;-78
2022/09/14 12:06:34;;;;;;;6.22;2.10;;;29.10;99.90;;;;;;5031435;28;20033;-78
2022/09/14 12:09:30;;;;;;;3.95;1.83;;;29.10;99.90;;;;;;5031379;28;20033;-78
2022/09/14 12:11:57;;;;;;;6.40;1.88;;;29.30;99.90;;;;;;5031219;28;20033;-78
2022/09/14 12:14:22;;;;;;;9.20;2.20;;;29.20;99.90;;;;;;5031411;28;20117;-78
2022/09/14 12:17:16;;;;;;;4.70;1.80;;;29.10;99.90;;;;;;5030959;28;20557;-78
2022/09/14 12:19:45;;;;;;;6.18;1.73;;;29.10;99.90;;;;;;5030709;28;20022;-78
2022/09/14 12:22:35;;;;;;;5.07;1.63;;;29.30;99.90;;;;;;5029527;28;20021;-78
2022/09/14 12:25:01;;;;;;;7.40;1.85;;;29.40;99.90;;;;;;5029812;28;20044;-78
2022/09/14 12:27:30;;;;;;;3.42;1.35;;;29.10;99.90;;;;;;5030944;28;20100;-78
2022/09/14 12:29:56;;;;;;;8.18;1.67;;;28.90;99.90;;;;;;5030503;28;20028;-78
2022/09/14 12:32:41;;;;;;;6.53;1.80;;;28.60;99.90;;;;;;5030533;28;20033;-77
2022/09/14 12:35:37;;;;;;;4.93;1.75;;;28.30;99.90;;;;;;5030168;28;20033;-78
2022/09/14 12:38:28;;;;;;;5.57;1.83;;;28.00;99.90;;;;;;5030705;28;20026;-78
2022/09/14 12:41:13;;;;;;;8.50;2.03;;;27.90;99.90;;;;;;5030611;28;20051;-78
2022/09/14 12:43:48;;;;;;;5.32;1.30;;;27.50;99.90;;;;;;5029167;28;20057;-78
2022/09/14 12:46:19;;;;;;;8.23;1.60;;;27.30;99.90;;;;;;5030396;28;20527;-78
2022/09/14 12:48:48;;;;;;;5.75;1.70;;;27.10;99.90;;;;;;5028941;28;20528;-78
2022/09/14 12:51:19;;;;;;;9.55;2.05;;;27.00;99.90;;;;;;5030679;28;20096;-78
2022/09/14 12:53:50;;;;;;;9.35;1.90;;;26.90;99.90;;;;;;5029728;28;20022;-78
2022/09/14 12:56:23;;;;;;;11.40;2.20;;;26.70;99.90;;;;;;5028302;28;20405;-78
2022/09/14 12:58:58;;;;;;;6.68;1.90;;;26.50;99.90;;;;;;5029651;28;20036;-78
2022/09/14 13:01:48;;;;;;;5.93;1.70;;;26.40;99.90;;;;;;5029974;28;20032;-78
2022/09/14 13:04:33;;;;;;;8.75;2.28;;;26.20;99.90;;;;;;5029178;28;20025;-78
2022/09/14 13:07:03;;;;;;;6.10;2.25;;;26.00;99.90;;;;;;5029597;28;20029;-78
2022/09/14 13:09:30;;;;;;;6.85;1.80;;;25.90;99.90;;;;;;5029632;28;20026;-78
2022/09/14 13:12:08;;;;;;;4.18;1.73;;;25.70;99.90;;;;;;5029235;28;20068;-78
2022/09/14 13:14:46;;;;;;;6.55;2.30;;;25.60;99.90;;;;;;5029178;28;20473;-78